Time;durP1;ratioP1;P1;durP2;ratioP2;P2;SDS_P1;SDS_P2;PMS_P1;PMS_P2;Temp;Humidity;BMP_temperature;BMP_pressure;BME280_temperature;BME280_humidity;BME280_pressure;Samples;Min_cycle;Max_cycle;Signal;HPM_P1;HPM_P2
2021/09/26 00:00:38;;;;;;;1.58;1.38;;;18.60;53.90;;;;;;4975331;28;20572;-81
2021/09/26 00:03:04;;;;;;;1.80;1.20;;;18.60;53.90;;;;;;4975251;28;20161;-81
2021/09/26 00:05:30;;;;;;;1.30;1.20;;;18.60;54.10;;;;;;4975551;28;20577;-81
2021/09/26 00:07:55;;;;;;;1.67;1.20;;;18.60;54.10;;;;;;4975191;28;20637;-81
2021/09/26 00:10:21;;;;;;;1.20;1.10;;;18.60;54.00;;;;;;4975312;28;20188;-81
2021/09/26 00:12:46;;;;;;;1.52;1.30;;;18.60;54.00;;;;;;4975354;28;20650;-80
2021/09/26 00:15:15;;;;;;;1.20;1.10;;;18.60;54.00;;;;;;4958132;28;20583;-80
2021/09/26 00:17:41;;;;;;;1.30;1.20;;;18.60;54.10;;;;;;4958255;28;20156;-81
2021/09/26 00:20:07;;;;;;;1.35;1.25;;;18.50;54.10;;;;;;4957934;28;20192;-81
2021/09/26 00:22:32;;;;;;;1.20;1.10;;;18.60;54.00;;;;;;4975246;28;20615;-81
2021/09/26 00:24:58;;;;;;;1.10;1.08;;;18.60;54.10;;;;;;4957846;28;20157;-81
2021/09/26 00:27:24;;;;;;;1.23;1.10;;;18.60;54.10;;;;;;4974943;28;20183;-81
2021/09/26 00:29:49;;;;;;;1.25;1.00;;;18.60;54.10;;;;;;4957801;28;20251;-81
2021/09/26 00:32:15;;;;;;;1.13;1.02;;;18.60;54.20;;;;;;4974887;28;20618;-81
2021/09/26 00:34:41;;;;;;;1.20;1.10;;;18.60;54.20;;;;;;4975116;28;20157;-80
2021/09/26 00:37:07;;;;;;;1.35;1.23;;;18.50;54.20;;;;;;4975110;28;20184;-81
2021/09/26 00:39:32;;;;;;;1.20;1.10;;;18.50;54.20;;;;;;4957590;28;20161;-81
2021/09/26 00:41:58;;;;;;;1.30;1.20;;;18.60;54.20;;;;;;4957653;28;20160;-81
2021/09/26 00:44:24;;;;;;;1.33;1.23;;;18.50;54.30;;;;;;4957812;28;20157;-81
2021/09/26 00:46:50;;;;;;;1.35;1.20;;;18.50;54.20;;;;;;4975073;28;20161;-80
2021/09/26 00:49:15;;;;;;;1.38;1.27;;;18.50;54.20;;;;;;4957804;28;20662;-81
2021/09/26 00:51:43;;;;;;;1.50;1.20;;;18.60;54.20;;;;;;4957901;28;20249;-80
2021/09/26 00:54:10;;;;;;;1.45;1.35;;;18.60;54.20;;;;;;4974651;28;20193;-81
2021/09/26 00:56:36;;;;;;;1.52;1.33;;;18.50;54.20;;;;;;4975011;28;20160;-81
2021/09/26 00:59:01;;;;;;;1.40;1.30;;;18.60;54.30;;;;;;4975253;28;20157;-81
2021/09/26 01:01:27;;;;;;;2.03;1.30;;;18.60;54.30;;;;;;4975345;28;20586;-80
2021/09/26 01:03:53;;;;;;;1.08;0.98;;;18.50;54.40;;;;;;4973331;28;20517;-81
2021/09/26 01:06:43;;;;;;;1.30;1.20;;;18.50;54.30;;;;;;4974259;28;20520;-81
2021/09/26 01:09:40;;;;;;;1.40;1.30;;;18.50;54.30;;;;;;4960528;28;20251;-81
2021/09/26 01:12:14;;;;;;;1.63;1.42;;;18.50;54.40;;;;;;4974861;28;20157;-81
2021/09/26 01:14:47;;;;;;;1.20;1.10;;;18.50;54.40;;;;;;4974779;28;20172;-80
2021/09/26 01:17:38;;;;;;;1.33;1.23;;;18.50;54.30;;;;;;4974931;28;20169;-81
2021/09/26 01:20:31;;;;;;;1.20;1.10;;;18.40;54.30;;;;;;4961077;28;20506;-81
2021/09/26 01:23:37;;;;;;;1.33;1.20;;;18.50;54.30;;;;;;4976812;28;20161;-81
2021/09/26 01:26:31;;;;;;;1.23;1.13;;;18.50;54.40;;;;;;4966887;28;20168;-81
2021/09/26 01:29:32;;;;;;;2.42;1.20;;;18.50;54.40;;;;;;4978524;28;20252;-81
2021/09/26 01:32:00;;;;;;;1.20;1.10;;;18.50;54.30;;;;;;4978286;28;20258;-80
2021/09/26 01:34:30;;;;;;;1.27;1.17;;;18.50;54.40;;;;;;4978302;28;20196;-81
2021/09/26 01:36:58;;;;;;;1.63;1.30;;;18.50;54.40;;;;;;4960624;28;20161;-81
2021/09/26 01:39:29;;;;;;;1.27;1.15;;;18.50;54.40;;;;;;4978112;28;20164;-81
2021/09/26 01:42:01;;;;;;;1.30;1.20;;;18.50;54.40;;;;;;4978102;28;20153;-81
2021/09/26 01:44:33;;;;;;;1.38;1.23;;;18.50;54.40;;;;;;4960639;28;20569;-81
2021/09/26 01:46:59;;;;;;;1.20;1.10;;;18.50;54.40;;;;;;4978030;28;20160;-81
2021/09/26 01:49:31;;;;;;;1.48;1.20;;;18.50;54.40;;;;;;4978133;28;20565;-80
2021/09/26 01:51:57;;;;;;;1.15;1.05;;;18.50;54.40;;;;;;4978165;28;20153;-80
2021/09/26 01:54:23;;;;;;;1.25;1.15;;;18.50;54.40;;;;;;4960639;28;20639;-81
2021/09/26 01:56:48;;;;;;;1.83;1.40;;;18.50;54.40;;;;;;4960411;28;20164;-81
2021/09/26 01:59:14;;;;;;;1.20;1.10;;;18.50;54.40;;;;;;4977724;28;20161;-81
2021/09/26 02:01:41;;;;;;;1.48;1.35;;;18.50;54.50;;;;;;4960777;28;20161;-81
2021/09/26 02:04:06;;;;;;;1.48;1.38;;;18.50;54.50;;;;;;4960581;28;20157;-81
2021/09/26 02:06:35;;;;;;;1.30;1.10;;;18.50;54.50;;;;;;4943881;28;20237;-81
2021/09/26 02:09:02;;;;;;;1.65;1.55;;;18.50;54.50;;;;;;4960648;28;20219;-81
2021/09/26 02:11:27;;;;;;;1.15;1.05;;;18.50;54.50;;;;;;4977810;28;20172;-81
2021/09/26 02:13:53;;;;;;;1.38;1.27;;;18.50;54.60;;;;;;4977729;28;20196;-81
2021/09/26 02:16:18;;;;;;;1.48;1.38;;;18.50;54.60;;;;;;4977400;28;20631;-81
2021/09/26 02:18:44;;;;;;;1.13;1.02;;;18.50;54.60;;;;;;4977317;28;20153;-81
2021/09/26 02:21:10;;;;;;;1.23;1.13;;;18.40;54.60;;;;;;4977386;28;20161;-81
2021/09/26 02:23:35;;;;;;;1.23;1.13;;;18.50;54.60;;;;;;4960136;28;20631;-81
2021/09/26 02:26:02;;;;;;;1.30;1.20;;;18.50;54.70;;;;;;4977403;28;20161;-81
2021/09/26 02:28:29;;;;;;;1.20;1.10;;;18.40;54.60;;;;;;4977141;28;20604;-81
2021/09/26 02:30:55;;;;;;;1.20;1.10;;;18.50;54.70;;;;;;4976975;28;20199;-81
2021/09/26 02:33:21;;;;;;;1.33;1.23;;;18.50;54.60;;;;;;4976426;28;20197;-81
2021/09/26 02:35:47;;;;;;;1.48;1.35;;;18.40;54.60;;;;;;4976697;28;20209;-81
2021/09/26 02:38:12;;;;;;;1.30;1.10;;;18.40;54.60;;;;;;4959951;28;20188;-81
2021/09/26 02:40:38;;;;;;;1.38;1.27;;;18.40;54.60;;;;;;4959487;28;20164;-81
2021/09/26 02:43:19;;;;;;;1.25;1.10;;;18.40;54.60;;;;;;4959755;28;20165;-81
2021/09/26 02:46:05;;;;;;;1.38;1.27;;;18.50;54.80;;;;;;4976670;28;20152;-81
2021/09/26 02:48:31;;;;;;;1.58;1.20;;;18.40;54.70;;;;;;4977042;28;20161;-80
2021/09/26 02:50:56;;;;;;;1.38;1.08;;;18.40;54.70;;;;;;4977217;28;20236;-81
2021/09/26 02:53:23;;;;;;;1.20;1.10;;;18.50;54.80;;;;;;4976548;28;20659;-80
2021/09/26 02:55:49;;;;;;;2.17;1.20;;;18.40;54.80;;;;;;4959348;28;20153;-81
2021/09/26 02:58:15;;;;;;;1.20;1.10;;;18.40;54.80;;;;;;4977024;28;20264;-81
2021/09/26 03:00:43;;;;;;;1.27;1.15;;;18.40;54.80;;;;;;4959541;28;20165;-81
2021/09/26 03:03:11;;;;;;;1.10;1.00;;;18.40;54.90;;;;;;4959268;28;20248;-81
2021/09/26 03:05:37;;;;;;;1.10;0.98;;;18.40;54.90;;;;;;4959478;28;20157;-81
2021/09/26 03:08:03;;;;;;;1.10;1.00;;;18.40;54.80;;;;;;4976093;28;20228;-81
2021/09/26 03:10:30;;;;;;;1.30;1.20;;;18.40;54.90;;;;;;4976625;28;20645;-81
2021/09/26 03:12:56;;;;;;;1.20;1.10;;;18.40;54.80;;;;;;4976380;28;20224;-81
2021/09/26 03:15:21;;;;;;;1.27;1.17;;;18.40;54.90;;;;;;4976406;28;20153;-81
2021/09/26 03:17:47;;;;;;;1.30;1.20;;;18.40;54.90;;;;;;4959285;28;20157;-81
2021/09/26 03:20:13;;;;;;;1.33;1.23;;;18.40;54.90;;;;;;4976066;28;20196;-81
2021/09/26 03:22:38;;;;;;;1.42;1.10;;;18.40;54.90;;;;;;4958738;28;20601;-81
2021/09/26 03:25:04;;;;;;;1.90;1.35;;;18.40;54.90;;;;;;4976250;28;20615;-81
2021/09/26 03:27:30;;;;;;;1.40;1.30;;;18.40;54.90;;;;;;4976230;28;20160;-81
2021/09/26 03:29:56;;;;;;;1.17;1.08;;;18.40;55.00;;;;;;4976503;28;20525;-81
2021/09/26 03:32:21;;;;;;;1.33;1.10;;;18.40;54.90;;;;;;4975998;28;20168;-81
2021/09/26 03:34:47;;;;;;;1.20;1.10;;;18.40;55.00;;;;;;4976059;28;20636;-81
2021/09/26 03:37:13;;;;;;;1.42;1.13;;;18.40;55.00;;;;;;4975937;28;20157;-81
2021/09/26 03:39:39;;;;;;;1.23;1.13;;;18.40;54.90;;;;;;4975823;28;20150;-81
2021/09/26 03:42:05;;;;;;;1.30;1.20;;;18.40;55.00;;;;;;4958845;28;20161;-81
2021/09/26 03:44:31;;;;;;;1.48;1.25;;;18.40;55.00;;;;;;4942674;28;20539;-81
2021/09/26 03:46:56;;;;;;;1.10;1.00;;;18.40;55.00;;;;;;4975939;28;20586;-81
2021/09/26 03:49:22;;;;;;;1.20;1.10;;;18.40;55.00;;;;;;4958592;28;20657;-81
2021/09/26 03:51:48;;;;;;;1.58;1.02;;;18.30;55.00;;;;;;4975732;28;20165;-81
2021/09/26 03:54:15;;;;;;;1.85;1.08;;;18.40;55.00;;;;;;4958353;28;20200;-80
2021/09/26 03:56:41;;;;;;;1.60;1.50;;;18.40;55.00;;;;;;4975474;28;20601;-80
2021/09/26 03:59:07;;;;;;;1.30;1.20;;;18.30;55.00;;;;;;4958314;28;20188;-81
2021/09/26 04:01:32;;;;;;;1.58;1.38;;;18.40;55.00;;;;;;4975625;28;20243;-81
2021/09/26 04:03:58;;;;;;;1.23;1.10;;;18.40;55.00;;;;;;4958188;28;20572;-81
2021/09/26 04:06:24;;;;;;;1.30;1.20;;;18.40;55.00;;;;;;4975250;28;20158;-81
2021/09/26 04:08:49;;;;;;;1.10;1.00;;;18.40;55.00;;;;;;4958091;28;20575;-81
2021/09/26 04:11:15;;;;;;;1.48;1.17;;;18.40;55.00;;;;;;4958180;28;20149;-81
2021/09/26 04:13:40;;;;;;;1.20;1.10;;;18.40;55.10;;;;;;4975360;28;20200;-81
2021/09/26 04:16:07;;;;;;;1.20;1.10;;;18.40;55.00;;;;;;4975715;28;20191;-81
2021/09/26 04:18:33;;;;;;;1.30;1.20;;;18.40;55.10;;;;;;4958311;28;20165;-81
2021/09/26 04:20:59;;;;;;;1.30;1.15;;;18.40;55.10;;;;;;4975231;28;20188;-82
2021/09/26 04:23:24;;;;;;;1.20;1.10;;;18.40;55.10;;;;;;4975212;28;20631;-81
2021/09/26 04:25:50;;;;;;;1.17;1.08;;;18.40;55.20;;;;;;4975580;28;20168;-81
2021/09/26 04:28:16;;;;;;;1.05;0.95;;;18.30;55.10;;;;;;4975539;28;20634;-80
2021/09/26 04:30:41;;;;;;;1.25;1.05;;;18.30;55.20;;;;;;4975202;28;20642;-81
2021/09/26 04:33:07;;;;;;;0.98;0.93;;;18.30;55.20;;;;;;4975125;28;20629;-81
2021/09/26 04:35:33;;;;;;;1.30;1.10;;;18.30;55.20;;;;;;4975151;28;20165;-81
2021/09/26 04:37:59;;;;;;;1.05;1.05;;;18.30;55.20;;;;;;4975586;28;20572;-81
2021/09/26 04:40:26;;;;;;;1.35;1.10;;;18.40;55.30;;;;;;4975066;28;20616;-81
2021/09/26 04:42:51;;;;;;;1.13;1.02;;;18.30;55.30;;;;;;4957817;28;20662;-81
2021/09/26 04:45:17;;;;;;;1.30;1.20;;;18.30;55.30;;;;;;4975120;28;20157;-80
2021/09/26 04:47:43;;;;;;;1.15;1.00;;;18.30;55.40;;;;;;4958074;28;20165;-81
2021/09/26 04:50:09;;;;;;;1.10;1.00;;;18.30;55.30;;;;;;4974990;28;20157;-80
2021/09/26 04:52:35;;;;;;;1.02;1.02;;;18.30;55.40;;;;;;4957712;28;20160;-81
2021/09/26 04:55:01;;;;;;;1.38;1.27;;;18.30;55.40;;;;;;4975260;28;20161;-81
2021/09/26 04:57:26;;;;;;;0.90;0.90;;;18.30;55.40;;;;;;4976302;28;20157;-81
2021/09/26 04:59:52;;;;;;;1.35;1.08;;;18.30;55.30;;;;;;4979233;28;20168;-82
2021/09/26 05:02:18;;;;;;;1.50;1.10;;;18.30;55.30;;;;;;4978824;28;20195;-81
2021/09/26 05:04:43;;;;;;;1.20;1.10;;;18.30;55.40;;;;;;4978702;28;20681;-81
2021/09/26 05:07:09;;;;;;;1.40;1.30;;;18.30;55.30;;;;;;4978241;28;20766;-81
2021/09/26 05:09:35;;;;;;;1.30;1.20;;;18.30;55.40;;;;;;4961093;28;20533;-81
2021/09/26 05:12:00;;;;;;;1.00;0.98;;;18.30;55.40;;;;;;4960993;28;20164;-81
2021/09/26 05:14:26;;;;;;;1.40;1.10;;;18.30;55.40;;;;;;4977919;28;20548;-81
2021/09/26 05:16:52;;;;;;;1.00;0.90;;;18.30;55.50;;;;;;4978023;28;20196;-81
2021/09/26 05:19:17;;;;;;;1.10;1.00;;;18.20;55.40;;;;;;4978013;28;20161;-81
2021/09/26 05:21:43;;;;;;;1.40;1.10;;;18.30;55.40;;;;;;4977800;28;20164;-81
2021/09/26 05:24:09;;;;;;;1.10;1.00;;;18.30;55.50;;;;;;4960576;28;20157;-81
2021/09/26 05:26:34;;;;;;;1.38;1.10;;;18.30;55.50;;;;;;4977847;28;20180;-81
2021/09/26 05:29:02;;;;;;;1.20;1.10;;;18.20;55.50;;;;;;4977894;28;20182;-81
2021/09/26 05:31:28;;;;;;;1.20;1.10;;;18.20;55.50;;;;;;4978035;28;20678;-81
2021/09/26 05:33:54;;;;;;;1.10;0.90;;;18.20;55.50;;;;;;4977481;28;20600;-81
2021/09/26 05:36:19;;;;;;;1.30;1.17;;;18.20;55.50;;;;;;4977542;28;20164;-81
2021/09/26 05:38:45;;;;;;;1.75;1.10;;;18.20;55.50;;;;;;4977670;28;20157;-81
2021/09/26 05:41:10;;;;;;;1.33;1.10;;;18.20;55.50;;;;;;4977475;28;20156;-81
2021/09/26 05:43:36;;;;;;;1.10;1.00;;;18.20;55.50;;;;;;4977671;28;20168;-81
2021/09/26 05:46:02;;;;;;;1.17;1.08;;;18.30;55.50;;;;;;4977430;28;20525;-81
2021/09/26 05:48:27;;;;;;;1.48;1.08;;;18.20;55.50;;;;;;4977314;28;20211;-81
2021/09/26 05:50:53;;;;;;;1.45;1.20;;;18.20;55.50;;;;;;4944100;28;20183;-82
2021/09/26 05:53:21;;;;;;;1.40;1.30;;;18.30;55.50;;;;;;4977203;28;20189;-81
2021/09/26 05:55:47;;;;;;;1.75;1.15;;;18.30;55.40;;;;;;4977542;28;20200;-81
2021/09/26 05:58:13;;;;;;;1.30;1.08;;;18.30;55.50;;;;;;4977339;28;20164;-81
2021/09/26 06:00:38;;;;;;;0.93;0.93;;;18.30;55.30;;;;;;4977141;28;20153;-81
2021/09/26 06:03:04;;;;;;;1.13;0.93;;;18.30;55.30;;;;;;4960089;28;20623;-81
2021/09/26 06:05:30;;;;;;;1.20;1.10;;;18.30;55.20;;;;;;4977061;28;20159;-81
2021/09/26 06:07:55;;;;;;;1.10;1.00;;;18.30;55.20;;;;;;4976468;28;20643;-81
2021/09/26 06:10:21;;;;;;;1.42;0.93;;;18.40;55.10;;;;;;4976116;28;20170;-82
2021/09/26 06:12:47;;;;;;;1.60;1.10;;;18.40;55.10;;;;;;4965409;28;20664;-82
2021/09/26 06:15:12;;;;;;;1.23;1.10;;;18.40;55.20;;;;;;4957612;29;20157;-82
2021/09/26 06:17:38;;;;;;;1.10;1.00;;;18.40;55.10;;;;;;4957578;29;20162;-82
2021/09/26 06:20:04;;;;;;;1.10;1.00;;;18.40;55.00;;;;;;4940320;29;20229;-82
2021/09/26 06:22:30;;;;;;;1.23;1.10;;;18.50;55.00;;;;;;4940360;29;20236;-81
2021/09/26 06:24:56;;;;;;;1.00;1.00;;;18.40;55.00;;;;;;4957441;29;20668;-82
2021/09/26 06:27:23;;;;;;;1.05;1.00;;;18.50;54.90;;;;;;4940382;29;20202;-82
2021/09/26 06:29:49;;;;;;;0.80;0.80;;;18.50;54.80;;;;;;4940695;29;20154;-83
2021/09/26 06:32:15;;;;;;;0.73;0.73;;;18.50;54.70;;;;;;4940311;29;20638;-83
2021/09/26 06:34:40;;;;;;;0.88;0.88;;;18.50;54.90;;;;;;4939997;28;20193;-82
2021/09/26 06:37:06;;;;;;;0.85;0.82;;;18.50;54.80;;;;;;4940450;29;20162;-82
2021/09/26 06:39:33;;;;;;;0.90;0.90;;;18.50;54.90;;;;;;4940026;29;20228;-81
2021/09/26 06:41:58;;;;;;;1.23;1.05;;;18.50;54.90;;;;;;4940033;29;20154;-82
2021/09/26 06:44:24;;;;;;;1.80;1.00;;;18.50;54.90;;;;;;4957115;29;20168;-82
2021/09/26 06:46:50;;;;;;;1.33;1.10;;;18.50;54.80;;;;;;4940226;29;20245;-81
2021/09/26 06:49:15;;;;;;;1.30;1.20;;;18.50;54.70;;;;;;4957051;29;20157;-82
2021/09/26 06:51:41;;;;;;;1.05;0.95;;;18.60;54.70;;;;;;4939691;29;20161;-81
2021/09/26 06:54:07;;;;;;;1.20;1.10;;;18.60;54.60;;;;;;4939342;29;20193;-82
2021/09/26 06:56:33;;;;;;;1.00;0.90;;;18.60;54.70;;;;;;4956901;29;20162;-82
2021/09/26 06:58:58;;;;;;;1.20;1.10;;;18.60;54.80;;;;;;4957072;29;20188;-81
2021/09/26 07:01:24;;;;;;;0.80;0.80;;;18.60;54.80;;;;;;4957035;29;20531;-81
2021/09/26 07:03:50;;;;;;;1.98;1.10;;;18.60;54.80;;;;;;4956670;29;20536;-81
2021/09/26 07:06:15;;;;;;;1.02;1.00;;;18.50;54.80;;;;;;4956606;29;20204;-81
2021/09/26 07:08:41;;;;;;;1.10;1.00;;;18.60;54.80;;;;;;4955720;29;20196;-81
2021/09/26 07:11:08;;;;;;;1.20;0.93;;;18.60;54.90;;;;;;4958605;28;20162;-82
2021/09/26 07:13:34;;;;;;;1.08;0.98;;;18.60;54.80;;;;;;4975768;28;20663;-82
2021/09/26 07:16:00;;;;;;;1.10;1.00;;;18.60;54.70;;;;;;4977461;28;20164;-81
2021/09/26 07:18:25;;;;;;;2.22;1.10;;;18.70;54.70;;;;;;4960406;28;20575;-81
2021/09/26 07:20:51;;;;;;;0.82;0.80;;;18.60;54.50;;;;;;4959328;28;20164;-82
2021/09/26 07:23:17;;;;;;;0.95;0.90;;;18.70;54.60;;;;;;4976900;28;20708;-81
2021/09/26 07:25:42;;;;;;;1.30;0.82;;;18.70;54.60;;;;;;4976283;28;20574;-81
2021/09/26 07:28:08;;;;;;;1.15;1.00;;;18.70;54.50;;;;;;4960510;28;20519;-81
2021/09/26 07:30:34;;;;;;;1.15;1.00;;;18.70;54.50;;;;;;4976574;28;20173;-82
2021/09/26 07:32:59;;;;;;;1.23;1.10;;;18.70;54.50;;;;;;4960129;28;20283;-81
2021/09/26 07:35:25;;;;;;;1.10;1.00;;;18.80;54.40;;;;;;4976858;28;20217;-81
2021/09/26 07:37:51;;;;;;;1.58;1.02;;;18.80;54.20;;;;;;4959956;28;20247;-81
2021/09/26 07:40:17;;;;;;;0.90;0.90;;;18.80;54.20;;;;;;4976630;28;20215;-81
2021/09/26 07:42:43;;;;;;;1.10;1.00;;;18.80;54.10;;;;;;4977176;28;20160;-81
2021/09/26 07:45:12;;;;;;;0.85;0.82;;;18.80;54.10;;;;;;4976890;28;20219;-81
2021/09/26 07:47:37;;;;;;;1.10;1.00;;;18.90;54.20;;;;;;4976851;28;20248;-81
2021/09/26 07:50:03;;;;;;;1.10;1.00;;;18.90;54.20;;;;;;4958889;28;20189;-81
2021/09/26 07:52:29;;;;;;;1.08;0.90;;;18.90;54.10;;;;;;4976987;28;20153;-81
2021/09/26 07:54:56;;;;;;;0.80;0.80;;;18.90;54.10;;;;;;4976764;28;20164;-81
2021/09/26 07:57:23;;;;;;;1.35;1.00;;;18.90;54.10;;;;;;4977558;28;20255;-81
2021/09/26 07:59:50;;;;;;;0.77;0.77;;;18.90;54.10;;;;;;4944239;28;20165;-81
2021/09/26 08:02:15;;;;;;;0.82;0.82;;;18.80;54.20;;;;;;4977776;28;20172;-81
2021/09/26 08:04:42;;;;;;;0.82;0.82;;;18.90;54.30;;;;;;4977020;28;20164;-81
2021/09/26 08:07:07;;;;;;;1.10;1.00;;;18.90;54.40;;;;;;4977103;28;20225;-81
2021/09/26 08:09:33;;;;;;;0.80;0.80;;;18.90;54.50;;;;;;4976929;28;20169;-81
2021/09/26 08:11:59;;;;;;;1.02;0.93;;;18.80;54.40;;;;;;4976851;28;20212;-81
2021/09/26 08:14:24;;;;;;;1.15;1.05;;;18.90;54.40;;;;;;4976685;28;20251;-81
2021/09/26 08:16:50;;;;;;;1.25;1.13;;;18.80;54.40;;;;;;4976805;28;20215;-81
2021/09/26 08:19:16;;;;;;;0.77;0.77;;;18.80;54.50;;;;;;4976832;28;20207;-81
2021/09/26 08:21:41;;;;;;;1.08;0.98;;;18.80;54.60;;;;;;4977199;28;20243;-81
2021/09/26 08:24:07;;;;;;;0.82;0.82;;;18.80;54.60;;;;;;4976061;28;20176;-82
2021/09/26 08:26:34;;;;;;;1.08;0.90;;;18.80;54.60;;;;;;4958005;28;20235;-81
2021/09/26 08:29:01;;;;;;;1.10;1.00;;;18.80;54.60;;;;;;4976015;28;20259;-81
2021/09/26 08:31:26;;;;;;;1.00;0.90;;;18.90;54.60;;;;;;4975472;28;20501;-81
2021/09/26 08:33:52;;;;;;;1.33;1.10;;;18.90;54.60;;;;;;4975381;28;20199;-81
2021/09/26 08:36:18;;;;;;;0.70;0.70;;;18.90;54.50;;;;;;4975935;28;20161;-81
2021/09/26 08:38:43;;;;;;;1.75;1.00;;;18.90;54.70;;;;;;4975693;28;20239;-82
2021/09/26 08:41:09;;;;;;;0.73;0.73;;;18.90;54.60;;;;;;4975846;28;20205;-81
2021/09/26 08:43:35;;;;;;;1.00;0.90;;;18.90;54.70;;;;;;4975755;28;20171;-82
2021/09/26 08:46:00;;;;;;;1.00;0.90;;;18.90;54.80;;;;;;4975595;28;20252;-82
2021/09/26 08:48:27;;;;;;;0.80;0.80;;;18.90;54.80;;;;;;4975290;28;20188;-82
2021/09/26 08:50:53;;;;;;;0.88;0.85;;;18.90;54.80;;;;;;4958174;28;20164;-81
2021/09/26 08:53:21;;;;;;;1.05;0.98;;;18.90;54.90;;;;;;4957313;28;20204;-81
2021/09/26 08:55:47;;;;;;;1.67;0.98;;;18.90;55.00;;;;;;4975197;28;20168;-80
2021/09/26 08:58:17;;;;;;;1.23;0.95;;;18.90;55.00;;;;;;4974592;28;20255;-81
2021/09/26 09:00:42;;;;;;;1.70;0.80;;;18.90;55.00;;;;;;4956543;28;20679;-81
2021/09/26 09:03:11;;;;;;;1.65;0.88;;;18.90;55.10;;;;;;4955206;29;20157;-81
2021/09/26 09:05:40;;;;;;;0.75;0.75;;;18.90;55.00;;;;;;4957225;28;20575;-80
2021/09/26 09:08:08;;;;;;;2.05;0.95;;;18.90;55.00;;;;;;4955482;28;20260;-83
2021/09/26 09:10:43;;;;;;;2.67;0.98;;;18.90;55.00;;;;;;4956023;29;20656;-82
2021/09/26 09:13:11;;;;;;;1.48;1.10;;;18.90;54.90;;;;;;4957980;28;20192;-82
2021/09/26 09:15:41;;;;;;;1.30;0.80;;;18.90;55.00;;;;;;4958175;28;20169;-81
2021/09/26 09:18:06;;;;;;;3.22;0.80;;;18.90;54.90;;;;;;4957736;28;20617;-82
2021/09/26 09:20:34;;;;;;;1.05;0.90;;;18.90;54.80;;;;;;4958027;28;20160;-82
2021/09/26 09:23:10;;;;;;;1.20;1.10;;;18.90;54.90;;;;;;4957896;28;20225;-82
2021/09/26 09:25:53;;;;;;;3.17;1.10;;;18.90;54.90;;;;;;4956041;28;20590;-82
2021/09/26 09:28:22;;;;;;;1.10;1.00;;;18.90;54.80;;;;;;4958354;28;20621;-83
2021/09/26 09:30:51;;;;;;;1.85;0.73;;;18.80;54.80;;;;;;4956480;29;20181;-83
2021/09/26 09:33:18;;;;;;;0.75;0.70;;;18.80;54.90;;;;;;4958115;28;20698;-83
2021/09/26 09:35:49;;;;;;;0.75;0.60;;;18.80;54.90;;;;;;4940692;29;20202;-82
2021/09/26 09:38:37;;;;;;;0.82;0.82;;;18.90;55.00;;;;;;4941732;29;20154;-82
2021/09/26 09:41:02;;;;;;;1.75;0.55;;;18.90;55.00;;;;;;4943645;29;20233;-82
2021/09/26 09:43:28;;;;;;;1.58;0.70;;;18.80;55.00;;;;;;4928186;28;20213;-82
2021/09/26 09:45:55;;;;;;;1.00;0.90;;;18.80;54.90;;;;;;4982918;28;20160;-82
2021/09/26 09:48:23;;;;;;;1.02;0.90;;;18.80;54.90;;;;;;4982246;28;20156;-83
2021/09/26 09:51:01;;;;;;;1.77;1.00;;;18.80;54.80;;;;;;4982838;28;20563;-82
2021/09/26 09:53:38;;;;;;;0.77;0.77;;;18.90;54.70;;;;;;4999534;28;20195;-82
2021/09/26 09:56:07;;;;;;;1.00;0.90;;;18.90;54.80;;;;;;4981595;28;20210;-82
2021/09/26 09:58:36;;;;;;;0.95;0.80;;;18.90;54.70;;;;;;4982503;28;20544;-83
2021/09/26 10:01:02;;;;;;;0.90;0.80;;;18.90;54.70;;;;;;5001492;28;20160;-82
2021/09/26 10:03:43;;;;;;;1.33;0.73;;;18.90;54.40;;;;;;4984115;28;20168;-83
2021/09/26 10:06:26;;;;;;;2.83;0.80;;;18.90;54.40;;;;;;4982872;28;20211;-81
2021/09/26 10:08:53;;;;;;;1.00;0.90;;;18.90;54.70;;;;;;5000611;28;20202;-83
2021/09/26 10:11:20;;;;;;;0.70;0.70;;;18.90;54.60;;;;;;5001500;28;20160;-82
2021/09/26 10:13:47;;;;;;;0.65;0.65;;;18.90;54.50;;;;;;4975258;28;20212;-82
2021/09/26 10:16:13;;;;;;;0.77;0.73;;;18.90;54.50;;;;;;4962114;28;20176;-81
2021/09/26 10:18:38;;;;;;;0.80;0.70;;;19.00;54.60;;;;;;4979057;28;20165;-81
2021/09/26 10:21:05;;;;;;;1.02;0.80;;;19.00;54.20;;;;;;4978763;28;20608;-83
2021/09/26 10:23:31;;;;;;;1.63;0.90;;;19.00;54.50;;;;;;4961308;28;20555;-82
2021/09/26 10:25:58;;;;;;;1.00;0.70;;;19.00;54.50;;;;;;4979911;28;20161;-82
2021/09/26 10:28:26;;;;;;;1.85;0.80;;;19.00;54.60;;;;;;4962644;28;20157;-82
2021/09/26 10:30:52;;;;;;;1.48;0.90;;;19.10;54.40;;;;;;4961023;28;20239;-82
2021/09/26 10:33:18;;;;;;;1.42;0.80;;;19.10;54.30;;;;;;4961582;28;20196;-83
2021/09/26 10:35:44;;;;;;;1.73;1.00;;;19.10;54.30;;;;;;4961049;28;20233;-82
2021/09/26 10:38:11;;;;;;;2.00;0.95;;;19.10;54.30;;;;;;4961997;28;20233;-84
2021/09/26 10:40:38;;;;;;;0.80;0.77;;;19.10;54.30;;;;;;4961056;28;20164;-82
2021/09/26 10:43:24;;;;;;;0.50;0.50;;;19.00;54.50;;;;;;4963005;28;20179;-83
2021/09/26 10:46:27;;;;;;;0.80;0.80;;;19.00;53.90;;;;;;4979211;28;20175;-83
2021/09/26 10:49:03;;;;;;;1.27;0.73;;;19.10;53.80;;;;;;4919854;29;20186;-81
2021/09/26 10:51:47;;;;;;;0.93;0.65;;;19.10;53.70;;;;;;4899236;29;20167;-82
2021/09/26 10:54:31;;;;;;;0.88;0.80;;;19.20;53.80;;;;;;4898922;29;20246;-82
2021/09/26 10:57:19;;;;;;;1.20;0.85;;;19.10;53.80;;;;;;4898895;29;20247;-82
2021/09/26 10:59:48;;;;;;;0.82;0.68;;;19.10;54.10;;;;;;4899052;29;20160;-83
2021/09/26 11:02:34;;;;;;;1.48;0.80;;;19.10;54.10;;;;;;4898920;29;20606;-83
2021/09/26 11:05:02;;;;;;;0.82;0.73;;;19.10;54.20;;;;;;4898821;29;20658;-82
2021/09/26 11:07:29;;;;;;;0.80;0.80;;;19.10;54.10;;;;;;4898575;29;20635;-82
2021/09/26 11:09:57;;;;;;;0.70;0.70;;;19.10;54.20;;;;;;4899312;29;20183;-83
2021/09/26 11:12:40;;;;;;;0.70;0.70;;;19.10;54.10;;;;;;4899104;29;20665;-82
2021/09/26 11:15:10;;;;;;;1.27;0.80;;;19.10;54.20;;;;;;4899369;29;20240;-82
2021/09/26 11:17:45;;;;;;;0.82;0.70;;;19.10;54.40;;;;;;4899606;29;20179;-82
2021/09/26 11:20:12;;;;;;;0.82;0.80;;;19.10;54.20;;;;;;4899699;29;20195;-82
2021/09/26 11:22:37;;;;;;;0.52;0.52;;;19.10;54.00;;;;;;4898692;29;20183;-82
2021/09/26 11:25:04;;;;;;;0.60;0.60;;;19.10;53.60;;;;;;4898453;29;20629;-82
2021/09/26 11:27:34;;;;;;;0.95;0.63;;;19.10;54.00;;;;;;4899032;29;20681;-82
2021/09/26 11:30:08;;;;;;;0.70;0.70;;;19.10;53.90;;;;;;4898968;29;20274;-82
2021/09/26 11:32:34;;;;;;;1.20;0.70;;;19.10;53.90;;;;;;4898614;29;20175;-82
2021/09/26 11:35:03;;;;;;;1.00;0.77;;;19.00;54.20;;;;;;4898388;29;20172;-81
2021/09/26 11:37:49;;;;;;;0.80;0.80;;;19.10;53.70;;;;;;4898491;29;20199;-82
2021/09/26 11:40:16;;;;;;;1.40;0.60;;;19.10;54.40;;;;;;4898838;29;20168;-82
2021/09/26 11:42:48;;;;;;;0.80;0.80;;;19.10;54.20;;;;;;4898528;29;20208;-83
2021/09/26 11:45:16;;;;;;;0.75;0.73;;;19.10;54.10;;;;;;4899350;29;20619;-83
2021/09/26 11:47:42;;;;;;;1.10;0.70;;;19.10;53.90;;;;;;4900122;29;20175;-82
2021/09/26 11:50:10;;;;;;;0.80;0.70;;;19.10;53.60;;;;;;4899510;29;20159;-82
2021/09/26 11:52:38;;;;;;;0.70;0.60;;;19.10;53.90;;;;;;4927928;29;20671;-82
2021/09/26 11:55:04;;;;;;;3.10;0.80;;;19.10;54.20;;;;;;4938312;29;20162;-81
2021/09/26 11:57:30;;;;;;;1.27;0.73;;;19.10;54.30;;;;;;4938297;29;20225;-81
2021/09/26 11:59:56;;;;;;;0.60;0.60;;;19.20;54.30;;;;;;4937611;29;20170;-82
2021/09/26 12:02:22;;;;;;;1.20;0.93;;;19.10;54.10;;;;;;4939103;29;20173;-82
2021/09/26 12:04:47;;;;;;;0.65;0.63;;;19.10;54.60;;;;;;4966866;28;20252;-81
2021/09/26 12:07:13;;;;;;;0.65;0.60;;;19.10;54.60;;;;;;4960605;28;20700;-81
2021/09/26 12:09:43;;;;;;;0.75;0.70;;;19.10;53.60;;;;;;4960181;29;20168;-82
2021/09/26 12:12:11;;;;;;;3.25;0.70;;;19.20;54.00;;;;;;4941567;29;20277;-81
2021/09/26 12:14:37;;;;;;;0.60;0.60;;;19.10;54.00;;;;;;4960670;29;20619;-81
2021/09/26 12:17:06;;;;;;;0.50;0.50;;;19.10;53.90;;;;;;4943102;29;20222;-81
2021/09/26 12:19:31;;;;;;;1.45;0.55;;;19.10;53.50;;;;;;4960373;29;20201;-80
2021/09/26 12:22:00;;;;;;;0.68;0.68;;;19.10;53.60;;;;;;4957140;29;20162;-81
2021/09/26 12:24:31;;;;;;;1.30;0.65;;;19.10;54.20;;;;;;4956557;29;20246;-80
2021/09/26 12:26:57;;;;;;;0.82;0.50;;;19.10;53.70;;;;;;4972690;28;20176;-80
2021/09/26 12:29:25;;;;;;;0.55;0.52;;;19.10;53.60;;;;;;4977619;28;20157;-81
2021/09/26 12:31:55;;;;;;;0.88;0.50;;;19.10;53.50;;;;;;4959908;28;20156;-81
2021/09/26 12:34:29;;;;;;;1.30;0.68;;;19.10;54.00;;;;;;4978659;28;20224;-81
2021/09/26 12:36:55;;;;;;;0.75;0.75;;;19.10;53.80;;;;;;4978621;28;20204;-80
2021/09/26 12:39:25;;;;;;;0.60;0.60;;;19.10;53.70;;;;;;4978324;28;20223;-80
2021/09/26 12:41:52;;;;;;;1.08;0.80;;;19.10;53.60;;;;;;4971060;28;20192;-81
2021/09/26 12:44:32;;;;;;;0.70;0.50;;;19.10;53.90;;;;;;4971858;28;20244;-81
2021/09/26 12:46:59;;;;;;;0.60;0.60;;;19.10;53.50;;;;;;4963997;28;20168;-81
2021/09/26 12:49:25;;;;;;;0.77;0.70;;;19.10;53.00;;;;;;4952369;28;20224;-81
2021/09/26 12:51:55;;;;;;;0.80;0.63;;;19.20;53.00;;;;;;4977439;28;20599;-82